createdAt,value
2018-11-06T00:00:03.235Z,58.20
2018-11-06T00:02:31.591Z,58.17
2018-11-06T00:05:05.388Z,57.00
2018-11-06T00:07:33.572Z,56.87
2018-11-06T00:10:01.828Z,56.70
2018-11-06T00:12:30.209Z,59.87
2018-11-06T00:15:00.110Z,55.67
2018-11-06T00:17:28.304Z,55.70
2018-11-06T00:19:56.731Z,60.27
2018-11-06T00:22:24.976Z,61.93
2018-11-06T00:24:53.364Z,61.27
2018-11-06T00:27:21.720Z,56.33
2018-11-06T00:29:50.165Z,55.17
2018-11-06T00:32:18.373Z,53.90
2018-11-06T00:34:46.757Z,55.13
2018-11-06T00:37:14.962Z,57.40
2018-11-06T00:39:43.281Z,53.40
2018-11-06T00:42:11.573Z,55.90
2018-11-06T00:44:39.765Z,60.00
2018-11-06T00:47:08.094Z,62.33
2018-11-06T00:49:36.271Z,62.87
2018-11-06T00:52:04.827Z,66.43
2018-11-06T00:54:33.152Z,64.47
2018-11-06T00:57:01.362Z,64.07
2018-11-06T00:59:29.669Z,60.57
2018-11-06T01:01:58.295Z,60.03
2018-11-06T01:04:26.484Z,60.60
2018-11-06T01:06:54.679Z,59.23
2018-11-06T01:09:23.090Z,63.07
2018-11-06T01:11:51.355Z,61.93
2018-11-06T01:14:19.635Z,60.33
2018-11-06T01:16:47.919Z,68.50
2018-11-06T01:19:16.130Z,65.90
2018-11-06T01:21:44.357Z,66.87
2018-11-06T01:24:12.742Z,63.10
2018-11-06T01:26:40.947Z,62.33
2018-11-06T01:29:09.155Z,65.70
2018-11-06T01:31:37.499Z,63.37
2018-11-06T01:34:05.814Z,69.57
2018-11-06T01:36:34.053Z,68.17
2018-11-06T01:39:02.585Z,65.63
2018-11-06T01:41:30.783Z,68.37
2018-11-06T01:43:58.983Z,68.43
2018-11-06T01:46:27.287Z,69.60
2018-11-06T01:48:55.462Z,62.47
2018-11-06T01:51:23.654Z,67.17
2018-11-06T01:53:51.946Z,63.50
2018-11-06T01:56:21.610Z,68.27
2018-11-06T01:58:49.773Z,67.77
2018-11-06T02:01:18.071Z,71.30
2018-11-06T02:03:46.293Z,70.70
2018-11-06T02:06:14.518Z,67.77
2018-11-06T02:08:43.115Z,65.63
2018-11-06T02:11:11.292Z,64.77
2018-11-06T02:13:39.584Z,69.20
2018-11-06T02:16:08.253Z,68.33
2018-11-06T02:18:36.435Z,67.80
2018-11-06T02:21:05.100Z,71.40
2018-11-06T02:23:33.387Z,68.90
2018-11-06T02:26:01.659Z,71.60
2018-11-06T02:28:29.884Z,73.63
2018-11-06T02:30:58.201Z,70.70
2018-11-06T02:33:26.520Z,66.00
2018-11-06T02:35:54.699Z,66.83
2018-11-06T02:38:22.887Z,67.67
2018-11-06T02:40:51.338Z,68.43
2018-11-06T02:43:19.507Z,68.13
2018-11-06T02:45:47.702Z,71.10
2018-11-06T02:48:15.984Z,66.70
2018-11-06T02:50:44.268Z,69.40
2018-11-06T02:53:12.472Z,67.20
2018-11-06T02:55:40.695Z,61.13
2018-11-06T02:58:08.990Z,63.80
2018-11-06T03:00:37.242Z,62.30
2018-11-06T03:03:05.608Z,65.30
2018-11-06T03:05:33.904Z,59.47
2018-11-06T03:08:02.216Z,57.63
2018-11-06T03:10:30.598Z,56.77
2018-11-06T03:12:58.824Z,56.50
2018-11-06T03:15:27.081Z,59.70
2018-11-06T03:17:55.410Z,56.67
2018-11-06T03:20:23.640Z,57.70
2018-11-06T03:22:51.815Z,55.00
2018-11-06T03:25:20.095Z,54.17
2018-11-06T03:27:48.301Z,55.50
2018-11-06T03:30:16.497Z,53.33
2018-11-06T03:32:45.063Z,53.27
2018-11-06T03:35:14.046Z,52.77
2018-11-06T03:37:42.348Z,52.00
2018-11-06T03:40:11.432Z,51.43
2018-11-06T03:42:40.447Z,54.87
2018-11-06T03:45:09.299Z,53.70
2018-11-06T03:47:37.588Z,53.17
2018-11-06T03:50:07.394Z,53.80
2018-11-06T03:52:35.695Z,54.70
2018-11-06T03:55:04.053Z,52.40
2018-11-06T03:57:32.236Z,54.50
2018-11-06T04:00:00.570Z,51.80
2018-11-06T04:02:28.779Z,53.30
2018-11-06T04:04:56.997Z,51.50
2018-11-06T04:07:25.519Z,52.40
2018-11-06T04:09:53.767Z,51.57
2018-11-06T04:12:21.939Z,52.60
2018-11-06T04:14:50.199Z,51.37
2018-11-06T04:17:18.505Z,51.03
2018-11-06T04:19:46.705Z,50.80
2018-11-06T04:22:14.888Z,49.53
2018-11-06T04:24:43.233Z,49.03
2018-11-06T04:27:11.527Z,49.20
2018-11-06T04:29:39.722Z,51.10
2018-11-06T04:32:08.023Z,46.73
2018-11-06T04:34:36.332Z,48.20
2018-11-06T04:37:04.523Z,45.90
2018-11-06T04:39:32.715Z,46.97
2018-11-06T04:42:01.010Z,45.43
2018-11-06T04:44:29.195Z,45.63
2018-11-06T04:46:57.399Z,45.47
2018-11-06T04:49:25.719Z,44.60
2018-11-06T04:51:53.904Z,43.30
2018-11-06T04:54:22.106Z,42.83
2018-11-06T04:56:50.386Z,42.37
2018-11-06T04:59:18.559Z,41.73
2018-11-06T05:01:46.730Z,41.50
2018-11-06T05:04:15.010Z,40.60
2018-11-06T05:06:43.199Z,41.20
2018-11-06T05:09:11.390Z,39.73
2018-11-06T05:11:39.706Z,40.77
2018-11-06T05:14:07.947Z,36.17
2018-11-06T05:16:36.228Z,42.10
2018-11-06T05:19:04.574Z,41.60
2018-11-06T05:21:32.949Z,42.00
2018-11-06T05:24:01.142Z,40.60
2018-11-06T05:26:29.320Z,38.80
2018-11-06T05:28:57.609Z,39.57
2018-11-06T05:31:26.484Z,40.50
2018-11-06T05:33:54.682Z,39.10
2018-11-06T05:36:22.956Z,40.17
2018-11-06T05:38:51.205Z,39.03
2018-11-06T05:41:19.316Z,40.73
2018-11-06T05:43:47.687Z,39.33
2018-11-06T05:46:15.832Z,42.07
2018-11-06T05:48:44.010Z,40.83
2018-11-06T05:51:12.292Z,42.90
2018-11-06T05:53:40.487Z,40.00
2018-11-06T05:56:08.679Z,40.17
2018-11-06T05:58:37.000Z,40.30
2018-11-06T06:01:05.596Z,40.53
2018-11-06T06:03:33.818Z,39.90
2018-11-06T06:06:02.172Z,43.50
2018-11-06T06:08:30.438Z,39.23
2018-11-06T06:10:58.763Z,42.13
2018-11-06T06:13:27.067Z,41.97
2018-11-06T06:15:55.382Z,42.47
2018-11-06T06:18:23.657Z,40.50
2018-11-06T06:20:51.858Z,43.10
2018-11-06T06:23:20.686Z,44.17
2018-11-06T06:25:48.940Z,42.57
2018-11-06T06:28:17.196Z,44.80
2018-11-06T06:30:45.511Z,43.10
2018-11-06T06:33:13.837Z,42.67
2018-11-06T06:35:42.032Z,41.57
2018-11-06T06:38:10.253Z,42.47
2018-11-06T06:40:38.744Z,41.97
2018-11-06T06:43:06.966Z,39.63
2018-11-06T06:45:35.229Z,41.27
2018-11-06T06:48:03.642Z,43.10
2018-11-06T06:50:31.915Z,42.27
2018-11-06T06:53:00.215Z,43.65
2018-11-06T06:55:28.606Z,47.90
2018-11-06T06:57:56.908Z,70.17
2018-11-06T07:00:25.156Z,49.17
2018-11-06T07:02:53.479Z,46.17
2018-11-06T07:05:22.874Z,45.47
2018-11-06T07:07:51.159Z,45.60
2018-11-06T07:10:20.885Z,46.47
2018-11-06T07:12:50.109Z,47.83
2018-11-06T07:15:19.587Z,40.97
2018-11-06T07:17:48.546Z,39.37
2018-11-06T07:20:18.292Z,38.30
2018-11-06T07:22:46.578Z,39.47
2018-11-06T07:25:15.262Z,38.97
2018-11-06T07:27:44.755Z,39.33
2018-11-06T07:30:15.448Z,39.53
2018-11-06T07:32:44.301Z,39.33
2018-11-06T07:35:13.635Z,37.70
2018-11-06T07:37:42.310Z,37.63
2018-11-06T07:40:12.109Z,37.90
2018-11-06T07:42:40.790Z,38.63
2018-11-06T07:45:12.773Z,41.80
2018-11-06T07:47:41.273Z,41.50
2018-11-06T07:50:10.479Z,40.90
2018-11-06T07:52:39.012Z,40.13
2018-11-06T07:55:10.277Z,41.23
2018-11-06T07:57:38.574Z,42.33
2018-11-06T08:00:12.386Z,42.60
2018-11-06T08:02:40.783Z,42.77
2018-11-06T08:05:09.152Z,42.70
2018-11-06T08:07:37.432Z,42.40
2018-11-06T08:10:06.808Z,40.47
2018-11-06T08:12:35.094Z,36.43
2018-11-06T08:15:03.618Z,39.23
2018-11-06T08:17:31.903Z,33.77
2018-11-06T08:20:00.259Z,35.13
2018-11-06T08:22:28.548Z,32.03
2018-11-06T08:24:56.790Z,33.37
2018-11-06T08:27:25.664Z,34.50
2018-11-06T08:29:53.919Z,30.83
2018-11-06T08:32:22.655Z,33.37
2018-11-06T08:34:50.626Z,31.03
2018-11-06T08:37:18.901Z,30.73
2018-11-06T08:39:47.328Z,30.73
2018-11-06T08:42:16.281Z,29.63
2018-11-06T08:44:44.565Z,28.60
2018-11-06T08:47:12.930Z,26.57
2018-11-06T08:49:41.311Z,27.00
2018-11-06T08:52:09.641Z,29.43
2018-11-06T08:54:37.968Z,27.70
2018-11-06T08:57:06.457Z,26.10
2018-11-06T08:59:34.797Z,26.37
2018-11-06T09:02:03.141Z,25.77
2018-11-06T09:04:31.530Z,24.97
2018-11-06T09:06:59.945Z,24.47
2018-11-06T09:09:28.257Z,24.83
2018-11-06T09:11:56.593Z,24.10
2018-11-06T09:14:25.165Z,23.50
2018-11-06T09:16:53.565Z,21.30
2018-11-06T09:19:21.963Z,19.83
2018-11-06T09:21:50.274Z,21.60
2018-11-06T09:24:18.582Z,19.70
2018-11-06T09:26:47.011Z,20.27
2018-11-06T09:29:15.312Z,19.87
2018-11-06T09:31:43.741Z,19.43
2018-11-06T09:34:12.164Z,18.33
2018-11-06T09:36:40.430Z,17.80
2018-11-06T09:39:10.607Z,17.73
2018-11-06T09:41:39.421Z,18.27
2018-11-06T09:44:07.745Z,18.60
2018-11-06T09:46:38.019Z,16.70
2018-11-06T09:49:06.906Z,15.17
2018-11-06T09:51:35.559Z,17.60
2018-11-06T09:54:04.411Z,15.60
2018-11-06T09:56:32.781Z,15.30
2018-11-06T09:59:01.165Z,15.10
2018-11-06T10:01:29.893Z,13.90
2018-11-06T10:03:58.188Z,13.87
2018-11-06T10:06:26.620Z,13.87
2018-11-06T10:08:54.938Z,14.20
2018-11-06T10:11:23.351Z,13.57
2018-11-06T10:13:51.779Z,13.00
2018-11-06T10:16:20.059Z,13.93
2018-11-06T10:18:49.441Z,12.70
2018-11-06T10:21:18.972Z,12.97
2018-11-06T10:23:47.337Z,12.23
2018-11-06T10:26:15.604Z,10.87
2018-11-06T10:28:43.940Z,10.77
2018-11-06T10:31:12.408Z,10.27
2018-11-06T10:33:40.860Z,8.60
2018-11-06T10:36:09.169Z,9.10
2018-11-06T10:38:37.617Z,8.63
2018-11-06T10:41:06.368Z,9.53
2018-11-06T10:43:34.703Z,8.60
2018-11-06T10:46:03.022Z,8.00
2018-11-06T10:48:32.294Z,7.77
2018-11-06T10:51:00.646Z,7.63
2018-11-06T10:53:29.029Z,8.10
2018-11-06T10:55:57.848Z,7.80
2018-11-06T10:58:26.093Z,7.10
2018-11-06T11:01:00.460Z,7.30
2018-11-06T11:03:38.049Z,6.73
2018-11-06T11:06:06.673Z,6.50
2018-11-06T11:08:34.985Z,7.00
2018-11-06T11:11:03.373Z,7.20
2018-11-06T11:13:31.740Z,6.80
2018-11-06T11:16:00.050Z,7.17
2018-11-06T11:18:28.486Z,6.57
2018-11-06T11:20:56.890Z,6.67
2018-11-06T11:23:25.339Z,7.17
2018-11-06T11:25:53.670Z,6.73
2018-11-06T11:28:22.092Z,6.20
2018-11-06T11:30:50.446Z,6.87
2018-11-06T11:33:18.852Z,6.70
2018-11-06T11:35:47.136Z,6.40
2018-11-06T11:38:15.486Z,5.60
2018-11-06T11:40:43.978Z,6.10
2018-11-06T11:43:12.363Z,5.27
2018-11-06T11:45:40.741Z,5.53
2018-11-06T11:48:09.016Z,5.30
2018-11-06T11:50:37.280Z,5.23
2018-11-06T11:53:05.665Z,4.77
2018-11-06T11:55:33.904Z,5.67
2018-11-06T11:58:02.204Z,5.20
2018-11-06T12:00:30.722Z,5.07
2018-11-06T12:02:58.930Z,4.90
2018-11-06T12:05:27.254Z,4.40
2018-11-06T12:07:55.629Z,4.63
2018-11-06T12:10:23.877Z,4.30
2018-11-06T12:12:52.173Z,4.30
2018-11-06T12:15:20.590Z,4.20
2018-11-06T12:17:48.873Z,3.50
2018-11-06T12:20:17.243Z,4.53
2018-11-06T12:22:45.625Z,3.60
2018-11-06T12:25:14.359Z,3.60
2018-11-06T12:27:42.540Z,4.07
2018-11-06T12:30:13.869Z,3.37
2018-11-06T12:32:42.245Z,4.13
2018-11-06T12:35:11.493Z,4.57
2018-11-06T12:37:40.211Z,4.40
2018-11-06T12:40:10.123Z,4.00
2018-11-06T12:42:38.892Z,3.80
2018-11-06T12:45:09.787Z,4.40
2018-11-06T12:47:38.383Z,4.27
2018-11-06T12:50:07.839Z,3.83
2018-11-06T12:52:36.204Z,4.40
2018-11-06T12:55:06.142Z,4.50
2018-11-06T12:57:34.444Z,4.63
2018-11-06T13:00:02.783Z,4.50
2018-11-06T13:02:31.202Z,5.10
2018-11-06T13:04:59.409Z,4.37
2018-11-06T13:07:27.705Z,4.43
2018-11-06T13:09:56.241Z,4.10
2018-11-06T13:12:24.438Z,4.13
2018-11-06T13:14:52.698Z,4.43
2018-11-06T13:17:21.100Z,4.10
2018-11-06T13:19:49.327Z,4.47
2018-11-06T13:22:17.717Z,4.80
2018-11-06T13:24:45.967Z,4.43
2018-11-06T13:27:14.286Z,5.17
2018-11-06T13:29:42.696Z,4.40
2018-11-06T13:32:11.003Z,4.30
2018-11-06T13:34:39.875Z,4.20
2018-11-06T13:37:08.272Z,4.93
2018-11-06T13:39:36.521Z,4.47
2018-11-06T13:42:05.337Z,3.80
2018-11-06T13:44:34.006Z,4.63
2018-11-06T13:47:01.869Z,4.90
2018-11-06T13:49:30.288Z,4.67
2018-11-06T13:51:58.759Z,4.60
2018-11-06T13:54:26.998Z,5.07
2018-11-06T13:56:55.248Z,5.00
2018-11-06T13:59:23.636Z,4.97
2018-11-06T14:01:51.877Z,5.33
2018-11-06T14:04:20.176Z,5.30
2018-11-06T14:06:48.448Z,6.00
2018-11-06T14:09:16.794Z,5.77
2018-11-06T14:11:45.063Z,6.77
2018-11-06T14:14:13.572Z,5.40
2018-11-06T14:16:42.438Z,5.50
2018-11-06T14:19:10.873Z,6.13
2018-11-06T14:21:39.246Z,5.63
2018-11-06T14:24:07.639Z,6.27
2018-11-06T14:26:35.934Z,6.83
2018-11-06T14:29:04.246Z,5.93
2018-11-06T14:31:32.590Z,6.53
2018-11-06T14:34:00.991Z,6.30
2018-11-06T14:36:29.312Z,6.60
2018-11-06T14:38:57.572Z,6.27
2018-11-06T14:41:26.197Z,7.00
2018-11-06T14:43:54.541Z,7.20
2018-11-06T14:46:22.864Z,7.40
2018-11-06T14:48:51.245Z,6.50
2018-11-06T14:51:19.484Z,8.20
2018-11-06T14:53:47.891Z,7.73
2018-11-06T14:56:17.914Z,7.90
2018-11-06T14:58:46.159Z,7.53
2018-11-06T15:01:14.653Z,7.90
2018-11-06T15:03:42.961Z,7.60
2018-11-06T15:06:11.248Z,8.67
2018-11-06T15:08:39.702Z,8.40
2018-11-06T15:11:08.126Z,8.77
2018-11-06T15:13:36.648Z,9.40
2018-11-06T15:16:05.284Z,9.77
2018-11-06T15:18:33.560Z,8.80
2018-11-06T15:21:02.060Z,8.83
2018-11-06T15:23:30.297Z,9.83
2018-11-06T15:25:58.528Z,8.20
2018-11-06T15:28:26.864Z,9.40
2018-11-06T15:30:55.360Z,9.20
2018-11-06T15:33:23.695Z,9.80
2018-11-06T15:35:52.027Z,10.40
2018-11-06T15:38:20.455Z,9.60
2018-11-06T15:40:48.837Z,10.87
2018-11-06T15:43:17.228Z,11.07
2018-11-06T15:45:45.630Z,10.73
2018-11-06T15:48:14.002Z,11.20
2018-11-06T15:50:42.328Z,12.13
2018-11-06T15:53:10.699Z,12.60
2018-11-06T15:55:39.001Z,12.20
2018-11-06T15:58:08.133Z,11.97
2018-11-06T16:00:36.752Z,12.57
2018-11-06T16:03:05.084Z,13.17
2018-11-06T16:05:33.318Z,12.30
2018-11-06T16:08:01.790Z,13.00
2018-11-06T16:10:30.148Z,14.40
2018-11-06T16:12:58.452Z,18.37
2018-11-06T16:15:27.171Z,15.60
2018-11-06T16:17:55.463Z,18.83
2018-11-06T16:20:23.750Z,21.07
2018-11-06T16:22:52.268Z,17.80
2018-11-06T16:25:21.370Z,15.40
2018-11-06T16:27:49.825Z,14.87
2018-11-06T16:30:19.364Z,14.63
2018-11-06T16:32:47.891Z,15.17
2018-11-06T16:35:17.727Z,15.67
2018-11-06T16:37:46.511Z,14.97
2018-11-06T16:40:15.280Z,15.83
2018-11-06T16:42:44.377Z,16.50
2018-11-06T16:45:16.385Z,16.47
2018-11-06T16:47:45.780Z,16.83
2018-11-06T16:50:15.247Z,16.70
2018-11-06T16:52:43.778Z,17.17
2018-11-06T16:55:12.460Z,17.10
2018-11-06T16:57:41.846Z,18.40
2018-11-06T17:00:14.014Z,16.50
2018-11-06T17:02:42.737Z,17.87
2018-11-06T17:05:12.324Z,18.80
2018-11-06T17:07:42.230Z,18.80
2018-11-06T17:10:11.988Z,18.50
2018-11-06T17:12:40.645Z,18.33
2018-11-06T17:15:17.073Z,19.23
2018-11-06T17:17:46.251Z,18.83
2018-11-06T17:20:15.090Z,19.30
2018-11-06T17:22:43.399Z,18.80
2018-11-06T17:25:13.868Z,19.00
2018-11-06T17:27:42.191Z,20.27
2018-11-06T17:30:13.104Z,19.40
2018-11-06T17:32:41.865Z,20.83
2018-11-06T17:35:12.915Z,19.50
2018-11-06T17:37:41.649Z,19.03
2018-11-06T17:40:12.282Z,20.40
2018-11-06T17:42:41.178Z,20.33
2018-11-06T17:45:15.263Z,19.73
2018-11-06T17:47:43.751Z,20.90
2018-11-06T17:50:13.565Z,20.07
2018-11-06T17:52:42.257Z,20.67
2018-11-06T17:55:12.243Z,19.97
2018-11-06T17:57:40.897Z,21.73
2018-11-06T18:00:13.237Z,20.60
2018-11-06T18:02:44.217Z,19.30
2018-11-06T18:05:13.640Z,21.10
2018-11-06T18:07:42.529Z,20.57
2018-11-06T18:10:12.743Z,19.77
2018-11-06T18:12:41.081Z,21.70
2018-11-06T18:15:09.614Z,22.00
2018-11-06T18:17:38.738Z,20.70
2018-11-06T18:20:08.415Z,21.70
2018-11-06T18:22:37.110Z,20.70
2018-11-06T18:25:06.217Z,22.20
2018-11-06T18:27:34.538Z,23.73
2018-11-06T18:30:03.040Z,22.33
2018-11-06T18:32:31.345Z,21.20
2018-11-06T18:34:59.697Z,23.00
2018-11-06T18:37:28.129Z,21.50
2018-11-06T18:39:57.043Z,21.50
2018-11-06T18:42:25.335Z,21.73
2018-11-06T18:44:53.836Z,22.07
2018-11-06T18:47:22.138Z,22.67
2018-11-06T18:49:51.690Z,21.43
2018-11-06T18:52:20.173Z,21.33
2018-11-06T18:54:48.518Z,21.80
2018-11-06T18:57:16.879Z,24.00
2018-11-06T18:59:45.315Z,24.50
2018-11-06T19:02:13.731Z,24.20
2018-11-06T19:04:42.696Z,23.53
2018-11-06T19:07:11.119Z,22.63
2018-11-06T19:09:39.423Z,22.80
2018-11-06T19:12:07.773Z,23.43
2018-11-06T19:14:36.242Z,20.73
2018-11-06T19:17:04.945Z,21.60
2018-11-06T19:19:33.484Z,22.90
2018-11-06T19:22:01.831Z,22.40
2018-11-06T19:24:30.258Z,21.50
2018-11-06T19:26:58.602Z,24.40
2018-11-06T19:29:27.546Z,23.70
2018-11-06T19:31:55.920Z,21.00
2018-11-06T19:34:24.354Z,23.23
2018-11-06T19:36:53.270Z,22.60
2018-11-06T19:39:21.723Z,22.03
2018-11-06T19:41:50.125Z,23.77
2018-11-06T19:44:18.494Z,23.23
2018-11-06T19:46:46.839Z,23.90
2018-11-06T19:49:15.378Z,24.73
2018-11-06T19:51:44.028Z,25.07
2018-11-06T19:54:12.307Z,20.80
2018-11-06T19:56:40.716Z,22.27
2018-11-06T19:59:09.131Z,20.10
2018-11-06T20:01:37.560Z,20.00
2018-11-06T20:04:06.181Z,20.00
2018-11-06T20:06:34.899Z,24.60
2018-11-06T20:09:05.170Z,23.10
2018-11-06T20:11:33.576Z,22.03
2018-11-06T20:14:01.988Z,19.80
2018-11-06T20:16:30.376Z,20.23
2018-11-06T20:18:58.805Z,21.03
2018-11-06T20:21:27.273Z,19.93
2018-11-06T20:23:55.663Z,20.27
2018-11-06T20:26:24.044Z,19.73
2018-11-06T20:28:52.440Z,19.87
2018-11-06T20:31:20.712Z,19.87
2018-11-06T20:33:49.124Z,19.23
2018-11-06T20:36:18.029Z,20.23
2018-11-06T20:38:46.503Z,17.60
2018-11-06T20:41:14.773Z,19.47
2018-11-06T20:43:43.271Z,18.77
2018-11-06T20:46:11.645Z,18.23
2018-11-06T20:48:40.018Z,19.10
2018-11-06T20:51:08.539Z,19.70
2018-11-06T20:53:36.970Z,18.50
2018-11-06T20:56:06.125Z,19.10
2018-11-06T20:58:34.699Z,18.17
2018-11-06T21:01:03.281Z,18.97
2018-11-06T21:03:31.753Z,18.03
2018-11-06T21:06:00.807Z,17.27
2018-11-06T21:08:29.094Z,19.30
2018-11-06T21:10:57.927Z,17.30
2018-11-06T21:13:27.478Z,17.23
2018-11-06T21:15:55.750Z,18.10
2018-11-06T21:18:24.007Z,19.33
2018-11-06T21:20:52.409Z,20.27
2018-11-06T21:23:20.998Z,20.30
2018-11-06T21:25:49.978Z,19.80
2018-11-06T21:28:18.209Z,20.17
2018-11-06T21:30:46.597Z,20.73
2018-11-06T21:33:14.881Z,20.63
2018-11-06T21:35:43.278Z,21.57
2018-11-06T21:38:11.663Z,21.17
2018-11-06T21:40:39.885Z,18.80
2018-11-06T21:43:08.283Z,20.30
2018-11-06T21:45:36.618Z,20.10
2018-11-06T21:48:05.105Z,19.87
2018-11-06T21:50:33.711Z,19.43
2018-11-06T21:53:02.062Z,18.73
2018-11-06T21:55:30.315Z,19.03
2018-11-06T21:57:58.653Z,16.93
2018-11-06T22:00:27.019Z,18.90
2018-11-06T22:02:55.257Z,15.40
2018-11-06T22:05:23.822Z,17.10
2018-11-06T22:07:52.050Z,16.70
2018-11-06T22:10:20.977Z,16.00
2018-11-06T22:12:49.824Z,15.60
2018-11-06T22:15:18.874Z,16.33
2018-11-06T22:17:47.166Z,16.80
2018-11-06T22:20:16.987Z,16.43
2018-11-06T22:22:45.761Z,17.00
2018-11-06T22:25:14.119Z,17.53
2018-11-06T22:27:42.620Z,17.07
2018-11-06T22:30:12.454Z,17.00
2018-11-06T22:32:41.654Z,19.40
2018-11-06T22:35:11.643Z,17.03
2018-11-06T22:37:39.980Z,19.10
2018-11-06T22:40:09.462Z,18.67
2018-11-06T22:42:38.020Z,19.33
2018-11-06T22:45:09.008Z,19.03
2018-11-06T22:47:37.347Z,19.13
2018-11-06T22:50:07.867Z,18.63
2018-11-06T22:52:36.253Z,16.43
2018-11-06T22:55:04.665Z,17.13
2018-11-06T22:57:32.912Z,18.20
2018-11-06T23:00:01.275Z,15.43
2018-11-06T23:02:29.661Z,18.10
2018-11-06T23:04:57.890Z,15.60
2018-11-06T23:07:31.902Z,13.97
2018-11-06T23:10:00.370Z,13.57
2018-11-06T23:12:28.625Z,14.50
2018-11-06T23:14:56.888Z,14.17
2018-11-06T23:17:25.231Z,13.60
2018-11-06T23:19:53.456Z,12.67
2018-11-06T23:22:21.673Z,11.80
2018-11-06T23:24:50.122Z,12.90
2018-11-06T23:27:18.342Z,11.53
2018-11-06T23:29:46.681Z,11.00
2018-11-06T23:32:14.957Z,12.33
2018-11-06T23:34:43.193Z,12.00
2018-11-06T23:37:11.615Z,12.73
2018-11-06T23:39:39.887Z,11.47
2018-11-06T23:42:08.088Z,11.40
2018-11-06T23:44:36.498Z,11.23
2018-11-06T23:47:04.926Z,10.30
2018-11-06T23:49:33.290Z,10.47
2018-11-06T23:52:01.639Z,10.53
2018-11-06T23:54:29.979Z,10.57
2018-11-06T23:56:58.399Z,10.97
2018-11-06T23:59:26.772Z,9.53
